Aviation Digital Data Service (ADDS)

Output produced by METARs form (1330 UTC 15 August 2018)
found at http://www.aviationweather.gov/adds/metars/
 
METAR text: LFLS 151300Z AUTO 36007KT 310V040 9999 FEW045 26/14 Q1020 NOSIG
Conditions at: LFLS (GRENOBLE/ST. GEO, FR) observed 1300 UTC 15 August 2018
Temperature: 26.0°C (79°F)
Dewpoint: 14.0°C (57°F) [RH = 48%]
Pressure (altimeter): 30.12 inches Hg (1020.0 mb)
Winds: from the N (360 degrees) at 8 MPH (7 knots; 3.6 m/s)
Visibility: 6 or more miles (10+ km)
Ceiling: at least 12,000 feet AGL
Clouds: few clouds at 4500 feet AGL
Weather: no significant weather observed at this time

Forecast for: LFLS (GRENOBLE/ST. GEO, FR)
Text: TAF LFLS 150800Z 1509/1609 35012KT CAVOK
Forecast period: 0900 to 1800 UTC 15 August 2018
Forecast type: FROM: standard forecast or significant change
Winds: from the N (350 degrees) at 14 MPH (12 knots; 6.2 m/s)
Visibility: 6 or more miles (10+ km)
Clouds: not forecast
Weather: NSW  (no significant weather)
Text: BECMG 1518/1520 VRB02KT
Forecast period: 1800 UTC 15 August 2018 to 0900 UTC 16 August 2018
Forecast type: BECOMING: Conditions expected to become as follows by 2000 UTC 15 August 2018
Winds: variable direction winds at 2 MPH (2 knots; 1.0 m/s)
Visibility: 6 or more miles (10+ km)
Weather: NSW  (no significant weather)